Time;durP1;ratioP1;P1;durP2;ratioP2;P2;SDS_P1;SDS_P2;PMS_P1;PMS_P2;Temp;Humidity;BMP_temperature;BMP_pressure;BME280_temperature;BME280_humidity;BME280_pressure;Samples;Min_cycle;Max_cycle;Signal;HPM_P1;HPM_P2
2021/04/12 00:00:40;;;;;;;0.70;0.40;;;;;;;;;;5033644;28;20791;-73
2021/04/12 00:03:14;;;;;;;1.13;1.03;;;;;;;;;;5033526;28;20410;-72
2021/04/12 00:05:45;;;;;;;0.70;0.40;;;;;;;;;;5023097;28;20412;-72
2021/04/12 00:08:17;;;;;;;0.80;0.57;;;;;;;;;;5013646;28;20411;-74
2021/04/12 00:10:43;;;;;;;0.70;0.40;;;;;;;;;;5028124;28;20960;-74
2021/04/12 00:13:13;;;;;;;0.70;0.50;;;;;;;;;;5032719;28;20402;-74
2021/04/12 00:15:44;;;;;;;0.70;0.50;;;;;;;;;;5033537;28;20481;-72
2021/04/12 00:18:26;;;;;;;0.70;0.50;;;;;;;;;;5033171;28;20451;-74
2021/04/12 00:21:00;;;;;;;0.70;0.50;;;;;;;;;;5031706;28;20409;-72
2021/04/12 00:23:32;;;;;;;0.70;0.50;;;;;;;;;;5031426;28;20465;-72
2021/04/12 00:26:18;;;;;;;0.70;0.50;;;;;;;;;;5032146;28;20414;-72
2021/04/12 00:28:46;;;;;;;0.70;0.50;;;;;;;;;;5033152;28;20418;-72
2021/04/12 00:31:40;;;;;;;0.70;0.50;;;;;;;;;;5030907;28;20744;-71
2021/04/12 00:34:10;;;;;;;0.80;0.60;;;;;;;;;;5024228;28;20458;-72
2021/04/12 00:36:40;;;;;;;0.80;0.60;;;;;;;;;;5048937;28;20421;-73
2021/04/12 00:39:13;;;;;;;0.70;0.60;;;;;;;;;;5045063;28;20430;-74
2021/04/12 00:41:57;;;;;;;0.70;0.50;;;;;;;;;;5053869;28;20900;-73
2021/04/12 00:44:26;;;;;;;0.70;0.47;;;;;;;;;;5046215;28;20441;-73
2021/04/12 00:46:56;;;;;;;0.80;0.60;;;;;;;;;;5031606;28;20413;-73
2021/04/12 00:49:41;;;;;;;0.70;0.50;;;;;;;;;;5032723;28;20437;-74
2021/04/12 00:52:25;;;;;;;0.70;0.57;;;;;;;;;;5026792;28;20421;-72
2021/04/12 00:55:00;;;;;;;0.70;0.50;;;;;;;;;;5039792;28;20906;-72
2021/04/12 00:57:38;;;;;;;1.00;0.70;;;;;;;;;;5028585;28;20420;-72
2021/04/12 01:00:16;;;;;;;0.70;0.50;;;;;;;;;;5055690;22;20547;-71
2021/04/12 01:03:00;;;;;;;1.37;0.87;;;;;;;;;;5046579;28;20439;-70
2021/04/12 01:05:45;;;;;;;0.70;0.50;;;;;;;;;;5048542;28;21001;-71
2021/04/12 01:08:18;;;;;;;0.80;0.60;;;;;;;;;;5048287;28;20414;-71
2021/04/12 01:10:56;;;;;;;0.70;0.50;;;;;;;;;;5052413;28;20430;-70
2021/04/12 01:13:40;;;;;;;0.70;0.40;;;;;;;;;;5058557;28;20422;-70
2021/04/12 01:16:12;;;;;;;0.70;0.40;;;;;;;;;;5050856;28;20761;-69
2021/04/12 01:18:56;;;;;;;0.70;0.50;;;;;;;;;;5045176;28;20882;-69
2021/04/12 01:21:41;;;;;;;0.70;0.50;;;;;;;;;;5051906;28;20519;-69
2021/04/12 01:24:37;;;;;;;0.70;0.50;;;;;;;;;;5052496;28;20918;-69
2021/04/12 01:27:30;;;;;;;0.70;0.50;;;;;;;;;;5052519;28;20397;-72
2021/04/12 01:30:14;;;;;;;0.70;0.50;;;;;;;;;;5052950;28;20971;-70
2021/04/12 01:32:58;;;;;;;0.70;0.50;;;;;;;;;;5056248;28;20520;-71
2021/04/12 01:35:36;;;;;;;0.70;0.47;;;;;;;;;;5058930;28;20534;-71
2021/04/12 01:38:21;;;;;;;0.70;0.50;;;;;;;;;;5055281;28;20920;-70
2021/04/12 01:41:06;;;;;;;0.80;0.63;;;;;;;;;;5052021;28;20457;-71
2021/04/12 01:43:43;;;;;;;5.80;1.23;;;;;;;;;;5052164;28;20501;-71
2021/04/12 01:46:17;;;;;;;0.80;0.60;;;;;;;;;;5048515;28;20407;-71
2021/04/12 01:48:53;;;;;;;0.70;0.50;;;;;;;;;;5051005;28;20396;-69
2021/04/12 01:51:32;;;;;;;0.70;0.50;;;;;;;;;;5051060;28;20409;-69
2021/04/12 01:54:13;;;;;;;1.77;0.80;;;;;;;;;;5054448;28;20463;-70
2021/04/12 01:56:58;;;;;;;0.70;0.50;;;;;;;;;;5054843;28;20496;-69
2021/04/12 01:59:42;;;;;;;0.70;0.43;;;;;;;;;;5045477;28;20417;-69
2021/04/12 02:02:44;;;;;;;0.80;0.60;;;;;;;;;;5051101;28;20412;-69
2021/04/12 02:05:28;;;;;;;0.70;0.50;;;;;;;;;;4985407;28;21024;-69
2021/04/12 02:08:00;;;;;;;0.70;0.60;;;;;;;;;;5045279;28;20474;-69
2021/04/12 02:10:35;;;;;;;0.70;0.50;;;;;;;;;;5050911;28;20436;-70
2021/04/12 02:13:19;;;;;;;0.97;0.70;;;;;;;;;;5037703;28;20409;-69
2021/04/12 02:15:51;;;;;;;0.70;0.50;;;;;;;;;;5051434;28;20450;-69
2021/04/12 02:18:32;;;;;;;0.70;0.43;;;;;;;;;;5051551;28;20404;-70
2021/04/12 02:21:06;;;;;;;0.70;0.40;;;;;;;;;;5033126;28;20428;-70
2021/04/12 02:23:32;;;;;;;0.70;0.50;;;;;;;;;;5051430;28;20436;-70
2021/04/12 02:26:05;;;;;;;0.90;0.80;;;;;;;;;;5051235;28;20861;-69
2021/04/12 02:28:47;;;;;;;0.70;0.60;;;;;;;;;;5051224;28;20857;-70
2021/04/12 02:31:21;;;;;;;0.70;0.50;;;;;;;;;;5050567;28;20429;-70
2021/04/12 02:33:53;;;;;;;0.90;0.60;;;;;;;;;;5051049;28;20408;-70
2021/04/12 02:36:38;;;;;;;0.70;0.50;;;;;;;;;;5051343;28;20421;-70
2021/04/12 02:39:16;;;;;;;0.70;0.50;;;;;;;;;;5032945;28;20841;-69
2021/04/12 02:42:00;;;;;;;0.70;0.50;;;;;;;;;;5050532;28;20375;-69
2021/04/12 02:44:42;;;;;;;0.70;0.50;;;;;;;;;;5050942;28;20409;-69
2021/04/12 02:47:08;;;;;;;0.70;0.50;;;;;;;;;;5050868;28;20447;-69
2021/04/12 02:49:53;;;;;;;0.70;0.50;;;;;;;;;;5050136;28;20828;-69
2021/04/12 02:52:25;;;;;;;0.70;0.50;;;;;;;;;;5051031;28;20457;-70
2021/04/12 02:55:03;;;;;;;0.70;0.50;;;;;;;;;;5050036;28;20457;-71
2021/04/12 02:57:38;;;;;;;0.70;0.50;;;;;;;;;;5050555;28;20411;-72
2021/04/12 03:00:07;;;;;;;0.70;0.50;;;;;;;;;;5050543;28;20443;-70
2021/04/12 03:02:43;;;;;;;0.70;0.40;;;;;;;;;;5050330;28;20492;-70
2021/04/12 03:05:15;;;;;;;0.70;0.40;;;;;;;;;;5050748;28;20769;-72
2021/04/12 03:07:51;;;;;;;0.70;0.40;;;;;;;;;;5033183;28;20923;-70
2021/04/12 03:10:35;;;;;;;0.70;0.47;;;;;;;;;;5050296;28;20848;-70
2021/04/12 03:13:10;;;;;;;0.70;0.40;;;;;;;;;;5050295;28;20377;-70
2021/04/12 03:15:55;;;;;;;0.90;0.70;;;;;;;;;;5050690;28;20454;-71
2021/04/12 03:18:21;;;;;;;0.80;0.60;;;;;;;;;;5050488;28;20403;-71
2021/04/12 03:21:05;;;;;;;0.70;0.50;;;;;;;;;;5050352;28;20420;-71
2021/04/12 03:23:31;;;;;;;0.70;0.50;;;;;;;;;;5050531;28;20444;-71
2021/04/12 03:26:20;;;;;;;0.90;0.60;;;;;;;;;;5054507;28;20525;-71
2021/04/12 03:29:06;;;;;;;0.70;0.60;;;;;;;;;;5051838;28;20439;-71
2021/04/12 03:31:50;;;;;;;0.70;0.60;;;;;;;;;;5042880;28;20439;-71
2021/04/12 03:34:22;;;;;;;0.90;0.73;;;;;;;;;;5050561;28;20456;-70
2021/04/12 03:37:04;;;;;;;0.70;0.50;;;;;;;;;;5050778;28;20404;-72
2021/04/12 03:39:36;;;;;;;0.70;0.50;;;;;;;;;;5050835;28;20510;-71
2021/04/12 03:42:10;;;;;;;0.70;0.40;;;;;;;;;;5050212;28;20929;-70
2021/04/12 03:44:55;;;;;;;0.90;0.60;;;;;;;;;;5050657;28;20417;-71
2021/04/12 03:47:36;;;;;;;1.43;0.70;;;;;;;;;;5050574;28;20834;-70
2021/04/12 03:50:13;;;;;;;0.70;0.50;;;;;;;;;;5050374;28;20926;-71
2021/04/12 03:52:59;;;;;;;0.70;0.60;;;;;;;;;;5032189;28;20772;-70
2021/04/12 03:55:28;;;;;;;0.70;0.60;;;;;;;;;;5058013;28;20462;-70
2021/04/12 03:58:00;;;;;;;0.80;0.73;;;;;;;;;;5043717;28;20532;-70
2021/04/12 04:00:32;;;;;;;0.70;0.50;;;;;;;;;;5047870;28;20444;-70
2021/04/12 04:03:17;;;;;;;1.30;0.80;;;;;;;;;;5050390;28;20819;-70
2021/04/12 04:05:46;;;;;;;0.70;0.50;;;;;;;;;;5048297;28;20425;-70
2021/04/12 04:08:30;;;;;;;0.80;0.70;;;;;;;;;;5044820;28;20476;-70
2021/04/12 04:11:11;;;;;;;0.87;0.50;;;;;;;;;;5027134;28;20431;-70
2021/04/12 04:13:56;;;;;;;0.70;0.50;;;;;;;;;;5046241;28;20402;-70
2021/04/12 04:16:40;;;;;;;0.90;0.60;;;;;;;;;;5043901;28;20417;-71
2021/04/12 04:19:06;;;;;;;0.80;0.57;;;;;;;;;;5044499;28;20380;-70
2021/04/12 04:21:44;;;;;;;0.70;0.50;;;;;;;;;;5041610;28;20744;-69
2021/04/12 04:24:29;;;;;;;1.10;0.77;;;;;;;;;;5037756;28;20464;-70
2021/04/12 04:26:55;;;;;;;0.80;0.60;;;;;;;;;;5050071;28;20468;-69
2021/04/12 04:29:27;;;;;;;1.03;0.93;;;;;;;;;;5059020;28;20414;-69
2021/04/12 04:32:11;;;;;;;0.70;0.43;;;;;;;;;;5052394;28;20444;-69
2021/04/12 04:34:56;;;;;;;4.00;0.80;;;;;;;;;;5041911;28;20980;-70
2021/04/12 04:37:35;;;;;;;0.70;0.50;;;;;;;;;;5028832;28;20412;-70
2021/04/12 04:40:20;;;;;;;0.70;0.50;;;;;;;;;;5049759;28;20437;-70
2021/04/12 04:43:02;;;;;;;0.80;0.70;;;;;;;;;;5053331;28;20819;-71
2021/04/12 04:45:39;;;;;;;0.90;0.60;;;;;;;;;;5052549;28;20427;-70
2021/04/12 04:48:24;;;;;;;1.00;0.90;;;;;;;;;;5053908;28;20427;-74
2021/04/12 04:51:10;;;;;;;0.80;0.60;;;;;;;;;;5048788;28;20424;-70
2021/04/12 04:53:36;;;;;;;0.70;0.50;;;;;;;;;;4997120;28;20930;-72
2021/04/12 04:56:13;;;;;;;0.80;0.60;;;;;;;;;;5052506;28;20450;-70
2021/04/12 04:58:49;;;;;;;0.70;0.50;;;;;;;;;;5051041;28;20788;-70
2021/04/12 05:01:28;;;;;;;0.70;0.60;;;;;;;;;;5055056;28;20474;-70
2021/04/12 05:04:01;;;;;;;5.90;1.07;;;;;;;;;;5054523;28;20493;-70
2021/04/12 05:06:46;;;;;;;0.70;0.50;;;;;;;;;;5057120;28;20412;-70
2021/04/12 05:09:15;;;;;;;0.87;0.73;;;;;;;;;;5050393;28;20984;-70
2021/04/12 05:12:04;;;;;;;0.90;0.80;;;;;;;;;;5046216;28;20435;-72
2021/04/12 05:14:44;;;;;;;1.10;1.00;;;;;;;;;;5008526;28;20446;-70
2021/04/12 05:17:34;;;;;;;0.70;0.40;;;;;;;;;;5046042;28;20418;-70
2021/04/12 05:20:18;;;;;;;0.73;0.63;;;;;;;;;;5051045;28;20506;-70
2021/04/12 05:23:05;;;;;;;1.27;0.70;;;;;;;;;;5050728;28;20889;-70
2021/04/12 05:25:31;;;;;;;0.80;0.70;;;;;;;;;;5008638;28;20487;-70
2021/04/12 05:27:59;;;;;;;0.70;0.60;;;;;;;;;;5051095;28;20823;-70
2021/04/12 05:30:45;;;;;;;0.83;0.83;;;;;;;;;;5048321;28;20418;-70
2021/04/12 05:33:11;;;;;;;0.80;0.50;;;;;;;;;;5051089;28;20398;-71
2021/04/12 05:35:49;;;;;;;0.80;0.60;;;;;;;;;;5056013;28;20523;-71
2021/04/12 05:38:28;;;;;;;0.90;0.73;;;;;;;;;;5047792;28;20424;-71
2021/04/12 05:40:54;;;;;;;3.07;1.30;;;;;;;;;;5031993;28;20525;-70
2021/04/12 05:43:27;;;;;;;0.80;0.67;;;;;;;;;;5042552;28;20429;-71
2021/04/12 05:46:05;;;;;;;0.70;0.50;;;;;;;;;;5059590;28;20425;-72
2021/04/12 05:48:50;;;;;;;0.80;0.60;;;;;;;;;;5049083;28;20417;-70
2021/04/12 05:51:34;;;;;;;0.70;0.50;;;;;;;;;;5044967;28;20426;-72
2021/04/12 05:54:19;;;;;;;0.90;0.67;;;;;;;;;;5045059;28;20747;-70
2021/04/12 05:56:51;;;;;;;0.70;0.40;;;;;;;;;;5051497;28;20390;-70
2021/04/12 05:59:26;;;;;;;0.70;0.50;;;;;;;;;;5051591;28;20402;-71
2021/04/12 06:02:10;;;;;;;0.80;0.60;;;;;;;;;;5050814;28;20391;-70
2021/04/12 06:04:51;;;;;;;0.80;0.80;;;;;;;;;;5034426;28;20461;-71
2021/04/12 06:07:36;;;;;;;0.70;0.53;;;;;;;;;;5051187;28;20441;-70
2021/04/12 06:10:08;;;;;;;1.37;1.27;;;;;;;;;;5051286;28;20471;-71
2021/04/12 06:12:52;;;;;;;0.70;0.50;;;;;;;;;;5050515;28;20406;-70
2021/04/12 06:15:37;;;;;;;0.80;0.57;;;;;;;;;;5051060;28;20540;-70
2021/04/12 06:18:21;;;;;;;0.70;0.60;;;;;;;;;;5051009;28;20875;-72
2021/04/12 06:21:06;;;;;;;0.70;0.43;;;;;;;;;;5046589;28;20525;-70
2021/04/12 06:23:46;;;;;;;0.70;0.50;;;;;;;;;;5049141;28;20985;-71
2021/04/12 06:26:30;;;;;;;1.80;0.57;;;;;;;;;;5049777;28;20410;-71
2021/04/12 06:28:56;;;;;;;0.70;0.60;;;;;;;;;;5032212;28;20421;-70
2021/04/12 06:31:41;;;;;;;0.80;0.70;;;;;;;;;;5046676;28;20591;-70
2021/04/12 06:34:28;;;;;;;1.17;1.03;;;;;;;;;;5048189;28;20463;-70
2021/04/12 06:37:13;;;;;;;0.97;0.87;;;;;;;;;;5035354;28;20430;-71
2021/04/12 06:39:57;;;;;;;0.80;0.50;;;;;;;;;;5051604;28;20510;-71
2021/04/12 06:42:32;;;;;;;0.90;0.60;;;;;;;;;;5041749;28;20467;-71
2021/04/12 06:45:07;;;;;;;0.80;0.60;;;;;;;;;;5053854;28;20407;-72
2021/04/12 06:47:42;;;;;;;1.47;0.80;;;;;;;;;;5050621;28;20852;-71
2021/04/12 06:50:08;;;;;;;0.97;0.50;;;;;;;;;;5050183;28;20418;-71
2021/04/12 06:52:52;;;;;;;2.10;0.80;;;;;;;;;;5050015;28;20894;-71
2021/04/12 06:55:19;;;;;;;0.70;0.50;;;;;;;;;;5051710;28;20470;-71
2021/04/12 06:58:09;;;;;;;0.90;0.67;;;;;;;;;;5052467;28;20411;-71
2021/04/12 07:00:45;;;;;;;1.87;0.80;;;;;;;;;;5069294;22;20987;-70
2021/04/12 07:03:31;;;;;;;1.10;0.77;;;;;;;;;;5067166;28;20410;-69
2021/04/12 07:06:09;;;;;;;0.73;0.47;;;;;;;;;;5056783;28;20493;-67
2021/04/12 07:08:44;;;;;;;1.00;0.90;;;;;;;;;;5050745;28;20478;-68
2021/04/12 07:11:28;;;;;;;1.00;0.70;;;;;;;;;;5063960;28;20469;-70
2021/04/12 07:14:10;;;;;;;0.70;0.50;;;;;;;;;;5051519;28;20474;-70
2021/04/12 07:16:51;;;;;;;0.77;0.50;;;;;;;;;;5062172;28;20947;-68
2021/04/12 07:19:26;;;;;;;2.10;1.90;;;;;;;;;;5064495;28;20456;-69
2021/04/12 07:22:11;;;;;;;1.70;0.93;;;;;;;;;;5066426;28;20441;-72
2021/04/12 07:24:55;;;;;;;0.70;0.50;;;;;;;;;;5065111;28;20444;-72
2021/04/12 07:27:33;;;;;;;1.60;1.50;;;;;;;;;;5058713;28;20406;-69
2021/04/12 07:30:17;;;;;;;1.43;1.03;;;;;;;;;;5058047;28;20417;-69
2021/04/12 07:32:43;;;;;;;1.47;1.37;;;;;;;;;;5057300;28;20418;-69
2021/04/12 07:35:31;;;;;;;1.03;0.93;;;;;;;;;;5066467;28;20956;-69
2021/04/12 07:38:10;;;;;;;0.70;0.50;;;;;;;;;;5051237;28;20420;-69
2021/04/12 07:40:55;;;;;;;0.70;0.50;;;;;;;;;;5052141;28;20532;-71
2021/04/12 07:43:21;;;;;;;0.70;0.50;;;;;;;;;;5069688;28;20412;-69
2021/04/12 07:46:07;;;;;;;0.80;0.73;;;;;;;;;;5073197;28;20417;-69
2021/04/12 07:48:52;;;;;;;0.80;0.53;;;;;;;;;;5072334;28;20405;-69
2021/04/12 07:51:33;;;;;;;1.20;1.10;;;;;;;;;;5066794;28;20438;-68
2021/04/12 07:54:18;;;;;;;0.70;0.50;;;;;;;;;;5072172;28;20960;-69
2021/04/12 07:57:09;;;;;;;0.90;0.80;;;;;;;;;;5064562;28;20411;-70
2021/04/12 07:59:54;;;;;;;0.90;0.77;;;;;;;;;;5054154;28;20413;-69
2021/04/12 08:02:26;;;;;;;0.90;0.60;;;;;;;;;;5068187;28;20456;-68
2021/04/12 08:05:10;;;;;;;0.80;0.50;;;;;;;;;;5070399;28;20838;-69
2021/04/12 08:08:04;;;;;;;0.70;0.50;;;;;;;;;;5065458;28;20542;-68
2021/04/12 08:11:05;;;;;;;0.80;0.60;;;;;;;;;;5071307;28;20884;-69
2021/04/12 08:13:31;;;;;;;0.70;0.40;;;;;;;;;;5064307;28;20408;-69
2021/04/12 08:16:15;;;;;;;0.90;0.60;;;;;;;;;;5071007;28;20460;-67
2021/04/12 08:19:00;;;;;;;0.70;0.50;;;;;;;;;;5072838;28;20864;-71
2021/04/12 08:21:52;;;;;;;0.80;0.50;;;;;;;;;;5072534;28;20456;-70
2021/04/12 08:24:32;;;;;;;0.70;0.50;;;;;;;;;;5073079;28;20827;-67
2021/04/12 08:27:08;;;;;;;0.80;0.70;;;;;;;;;;5073332;28;20401;-69
2021/04/12 08:29:53;;;;;;;0.70;0.50;;;;;;;;;;5054872;28;20426;-72
2021/04/12 08:32:31;;;;;;;0.70;0.60;;;;;;;;;;5072410;28;20432;-69
2021/04/12 08:35:08;;;;;;;0.70;0.50;;;;;;;;;;5071893;28;20428;-69
2021/04/12 08:37:51;;;;;;;0.70;0.40;;;;;;;;;;5072914;28;20963;-70
2021/04/12 08:40:36;;;;;;;0.80;0.60;;;;;;;;;;5072624;28;20501;-70
2021/04/12 08:43:03;;;;;;;0.70;0.50;;;;;;;;;;5072091;28;20383;-70
2021/04/12 08:45:48;;;;;;;0.70;0.40;;;;;;;;;;5070032;28;20413;-69
2021/04/12 08:48:14;;;;;;;6.73;0.70;;;;;;;;;;5065049;28;20424;-70
2021/04/12 08:50:52;;;;;;;1.60;1.20;;;;;;;;;;5067010;28;20919;-71
2021/04/12 08:53:24;;;;;;;0.70;0.50;;;;;;;;;;5070309;28;20425;-70
2021/04/12 08:56:17;;;;;;;0.70;0.40;;;;;;;;;;5070305;28;20952;-71
2021/04/12 08:58:58;;;;;;;0.70;0.50;;;;;;;;;;5070847;28;20435;-69
2021/04/12 09:01:43;;;;;;;0.80;0.60;;;;;;;;;;5071137;28;20431;-71
2021/04/12 09:04:27;;;;;;;0.70;0.40;;;;;;;;;;5070973;28;20792;-71
2021/04/12 09:07:12;;;;;;;0.70;0.40;;;;;;;;;;5071105;28;20419;-71
2021/04/12 09:09:40;;;;;;;0.70;0.43;;;;;;;;;;5067536;28;20484;-69
2021/04/12 09:12:25;;;;;;;0.90;0.60;;;;;;;;;;5069532;28;20458;-70
2021/04/12 09:15:15;;;;;;;0.70;0.50;;;;;;;;;;5069430;28;20523;-70
2021/04/12 09:17:57;;;;;;;0.87;0.50;;;;;;;;;;5049830;28;20410;-71
2021/04/12 09:20:46;;;;;;;0.80;0.60;;;;;;;;;;5064466;28;20447;-70
2021/04/12 09:23:30;;;;;;;0.80;0.67;;;;;;;;;;5043831;28;20402;-71
2021/04/12 09:26:05;;;;;;;0.90;0.70;;;;;;;;;;5066294;28;20409;-67
2021/04/12 09:28:49;;;;;;;0.70;0.60;;;;;;;;;;5065637;28;20384;-70
2021/04/12 09:31:34;;;;;;;0.97;0.60;;;;;;;;;;5067990;28;20438;-68
2021/04/12 09:34:06;;;;;;;0.90;0.70;;;;;;;;;;5062015;28;20415;-69
2021/04/12 09:36:50;;;;;;;0.70;0.50;;;;;;;;;;5066756;28;20415;-68
2021/04/12 09:39:32;;;;;;;0.80;0.50;;;;;;;;;;5063513;28;20401;-69
2021/04/12 09:42:16;;;;;;;1.37;0.70;;;;;;;;;;5061197;28;20464;-69
2021/04/12 09:44:45;;;;;;;0.70;0.40;;;;;;;;;;5056881;28;20406;-70
2021/04/12 09:47:36;;;;;;;0.90;0.80;;;;;;;;;;5065229;28;20376;-69
2021/04/12 09:50:02;;;;;;;1.13;0.77;;;;;;;;;;5065012;28;20403;-70
2021/04/12 09:52:46;;;;;;;1.80;0.80;;;;;;;;;;5069995;28;20436;-71
2021/04/12 09:55:41;;;;;;;1.33;0.60;;;;;;;;;;5066566;28;20450;-72
2021/04/12 09:58:28;;;;;;;3.47;0.70;;;;;;;;;;5034077;28;20779;-69
2021/04/12 10:01:00;;;;;;;0.70;0.60;;;;;;;;;;5061767;28;20934;-72
2021/04/12 10:03:44;;;;;;;0.70;0.40;;;;;;;;;;5063708;28;20414;-71
2021/04/12 10:06:29;;;;;;;0.70;0.50;;;;;;;;;;5061717;28;20479;-72
2021/04/12 10:09:12;;;;;;;0.80;0.70;;;;;;;;;;5064459;28;20405;-69
2021/04/12 10:11:44;;;;;;;0.70;0.50;;;;;;;;;;5065202;28;20999;-70
2021/04/12 10:14:17;;;;;;;0.80;0.60;;;;;;;;;;5059227;28;20462;-72
2021/04/12 10:16:48;;;;;;;0.80;0.60;;;;;;;;;;5065045;28;20938;-70
2021/04/12 10:19:21;;;;;;;0.80;0.63;;;;;;;;;;5063186;28;20419;-70
2021/04/12 10:21:59;;;;;;;0.90;0.60;;;;;;;;;;5058053;28;20418;-66
2021/04/12 10:24:27;;;;;;;0.80;0.50;;;;;;;;;;5036445;28;20459;-67
2021/04/12 10:26:53;;;;;;;0.80;0.60;;;;;;;;;;5051774;28;20411;-70
2021/04/12 10:29:22;;;;;;;1.40;1.07;;;;;;;;;;5065555;28;20455;-67
2021/04/12 10:32:06;;;;;;;0.70;0.40;;;;;;;;;;5066558;28;20454;-72
2021/04/12 10:34:36;;;;;;;0.70;0.50;;;;;;;;;;5063394;28;20449;-69
2021/04/12 10:37:22;;;;;;;0.70;0.50;;;;;;;;;;5065337;28;20801;-70
2021/04/12 10:40:05;;;;;;;1.13;0.73;;;;;;;;;;5061729;28;20377;-67
2021/04/12 10:42:43;;;;;;;1.10;0.70;;;;;;;;;;5060070;28;20409;-67
2021/04/12 10:45:14;;;;;;;1.00;0.60;;;;;;;;;;5042151;28;20411;-67
2021/04/12 10:47:46;;;;;;;0.80;0.60;;;;;;;;;;5062715;28;20434;-68
2021/04/12 10:50:15;;;;;;;0.80;0.60;;;;;;;;;;5056548;28;20471;-68
2021/04/12 10:52:53;;;;;;;0.70;0.50;;;;;;;;;;5062751;28;20442;-67
2021/04/12 10:55:24;;;;;;;3.27;1.07;;;;;;;;;;5065213;28;20982;-66
2021/04/12 10:58:11;;;;;;;0.70;0.50;;;;;;;;;;5065016;28;20406;-68
2021/04/12 11:00:57;;;;;;;0.70;0.50;;;;;;;;;;5057324;28;20433;-67
2021/04/12 11:03:37;;;;;;;0.70;0.60;;;;;;;;;;5057207;28;20414;-70
2021/04/12 11:06:11;;;;;;;1.00;0.60;;;;;;;;;;5045802;28;20429;-69
2021/04/12 11:08:46;;;;;;;4.50;0.97;;;;;;;;;;5067477;28;20461;-68
2021/04/12 11:11:24;;;;;;;0.93;0.80;;;;;;;;;;5045919;28;20979;-67
2021/04/12 11:14:05;;;;;;;0.70;0.50;;;;;;;;;;5063362;28;20475;-68
2021/04/12 11:17:03;;;;;;;0.90;0.77;;;;;;;;;;5061934;28;20441;-68
2021/04/12 11:19:48;;;;;;;1.93;0.57;;;;;;;;;;5019087;28;20427;-68
2021/04/12 11:22:39;;;;;;;0.70;0.50;;;;;;;;;;5062849;28;20396;-68
2021/04/12 11:25:11;;;;;;;0.70;0.47;;;;;;;;;;5064160;28;21181;-68
2021/04/12 11:27:46;;;;;;;0.80;0.50;;;;;;;;;;5062142;28;20899;-67
2021/04/12 11:30:21;;;;;;;0.80;0.70;;;;;;;;;;5060937;28;20516;-69
2021/04/12 11:33:06;;;;;;;1.17;0.50;;;;;;;;;;5059922;28;20855;-70
2021/04/12 11:35:35;;;;;;;0.70;0.40;;;;;;;;;;5061752;28;20431;-69
2021/04/12 11:38:04;;;;;;;0.80;0.60;;;;;;;;;;5058843;28;20411;-70
2021/04/12 11:40:32;;;;;;;1.20;0.80;;;;;;;;;;5057872;28;20432;-70
2021/04/12 11:43:04;;;;;;;0.90;0.67;;;;;;;;;;5060244;28;20846;-69
2021/04/12 11:45:48;;;;;;;1.43;1.33;;;;;;;;;;5062069;28;20420;-68
2021/04/12 11:48:24;;;;;;;0.80;0.50;;;;;;;;;;5046986;28;20394;-70
2021/04/12 11:51:09;;;;;;;0.80;0.70;;;;;;;;;;5035077;28;20443;-70
2021/04/12 11:53:46;;;;;;;1.23;0.60;;;;;;;;;;5065233;28;20970;-72
2021/04/12 11:56:15;;;;;;;0.97;0.67;;;;;;;;;;5068170;28;20468;-70
2021/04/12 11:58:50;;;;;;;176.07;83.93;;;;;;;;;;5063773;28;20434;-70
2021/04/12 12:01:27;;;;;;;1.73;0.63;;;;;;;;;;5064610;28;20456;-71
2021/04/12 12:04:01;;;;;;;1397.47;676.90;;;;;;;;;;5063325;28;20402;-70
2021/04/12 12:06:39;;;;;;;896.63;802.63;;;;;;;;;;5067136;28;20461;-69
2021/04/12 12:09:08;;;;;;;0.90;0.40;;;;;;;;;;5067362;28;20405;-70
2021/04/12 12:11:40;;;;;;;1.80;0.50;;;;;;;;;;5067192;28;20580;-70
2021/04/12 12:14:13;;;;;;;15.20;0.70;;;;;;;;;;5067797;28;20860;-68
2021/04/12 12:16:42;;;;;;;65.27;4.87;;;;;;;;;;5067261;28;20420;-69
2021/04/12 12:19:14;;;;;;;29.33;0.97;;;;;;;;;;5067284;28;20392;-70
2021/04/12 12:21:49;;;;;;;1999.90;999.90;;;;;;;;;;5067313;28;20456;-69
2021/04/12 12:24:24;;;;;;;1999.90;999.90;;;;;;;;;;5068739;28;20558;-68
2021/04/12 12:27:09;;;;;;;2.80;0.50;;;;;;;;;;5071143;28;20475;-68
2021/04/12 12:29:49;;;;;;;29.37;0.80;;;;;;;;;;5052930;28;20487;-68
2021/04/12 12:32:15;;;;;;;6.10;0.60;;;;;;;;;;5066114;28;20845;-69
2021/04/12 12:34:47;;;;;;;2.50;0.50;;;;;;;;;;5066640;28;20431;-69
2021/04/12 12:37:22;;;;;;;14.20;0.60;;;;;;;;;;5051394;28;20380;-68
2021/04/12 12:39:50;;;;;;;7.20;0.50;;;;;;;;;;5070015;28;20899;-70
2021/04/12 12:42:19;;;;;;;25.27;0.77;;;;;;;;;;5068871;28;20593;-68
2021/04/12 12:44:46;;;;;;;13.53;0.50;;;;;;;;;;5058434;28;20385;-69
2021/04/12 12:47:17;;;;;;;7.73;0.60;;;;;;;;;;5074843;28;20763;-69
2021/04/12 12:49:52;;;;;;;3.87;0.50;;;;;;;;;;5074718;28;20369;-69
2021/04/12 12:52:39;;;;;;;40.40;35.73;;;;;;;;;;5052875;28;20399;-68
2021/04/12 12:55:26;;;;;;;1.30;0.50;;;;;;;;;;5066473;28;20462;-69
2021/04/12 12:57:53;;;;;;;0.83;0.70;;;;;;;;;;5053454;28;20414;-70
2021/04/12 13:00:34;;;;;;;1.13;0.70;;;;;;;;;;5040331;28;20438;-70
2021/04/12 13:03:01;;;;;;;111.97;30.77;;;;;;;;;;5057985;28;20435;-69
2021/04/12 13:05:32;;;;;;;1.10;0.80;;;;;;;;;;5079826;22;20501;-69
2021/04/12 13:08:11;;;;;;;0.90;0.50;;;;;;;;;;5072027;28;20411;-69
2021/04/12 13:10:43;;;;;;;0.80;0.50;;;;;;;;;;5060612;28;20382;-67
2021/04/12 13:13:21;;;;;;;0.80;0.60;;;;;;;;;;5071085;28;20458;-67
2021/04/12 13:15:47;;;;;;;0.83;0.50;;;;;;;;;;5048873;28;20602;-66
2021/04/12 13:18:24;;;;;;;1.50;0.80;;;;;;;;;;5053754;28;20409;-69
2021/04/12 13:21:09;;;;;;;101.03;92.00;;;;;;;;;;5030353;28;20413;-66
2021/04/12 13:23:44;;;;;;;227.60;31.50;;;;;;;;;;5052432;28;20415;-66
2021/04/12 13:26:19;;;;;;;85.00;21.90;;;;;;;;;;5049434;28;20431;-67
2021/04/12 13:28:46;;;;;;;1.87;0.77;;;;;;;;;;5049060;28;20482;-67
2021/04/12 13:31:13;;;;;;;0.77;0.60;;;;;;;;;;5053270;28;20377;-68
2021/04/12 13:33:44;;;;;;;1.07;0.60;;;;;;;;;;5051903;28;20417;-68
2021/04/12 13:36:16;;;;;;;1.10;0.73;;;;;;;;;;5053102;28;20456;-69
2021/04/12 13:38:43;;;;;;;0.90;0.50;;;;;;;;;;5052256;28;20500;-68
2021/04/12 13:41:20;;;;;;;1.40;0.70;;;;;;;;;;5041633;28;20437;-67
2021/04/12 13:43:47;;;;;;;1.93;0.73;;;;;;;;;;5041303;28;20407;-67
2021/04/12 13:46:27;;;;;;;0.70;0.43;;;;;;;;;;5032347;28;20522;-68
2021/04/12 13:49:03;;;;;;;0.80;0.50;;;;;;;;;;5050406;28;20507;-68
2021/04/12 13:51:49;;;;;;;0.83;0.50;;;;;;;;;;5044101;28;20414;-67
2021/04/12 13:54:18;;;;;;;0.80;0.60;;;;;;;;;;5052168;28;20457;-68
2021/04/12 13:56:47;;;;;;;0.77;0.57;;;;;;;;;;5037949;28;20826;-68
2021/04/12 13:59:19;;;;;;;0.70;0.50;;;;;;;;;;5044890;28;20856;-67
2021/04/12 14:01:49;;;;;;;0.70;0.50;;;;;;;;;;5050512;28;20415;-69
2021/04/12 14:04:18;;;;;;;1.33;0.60;;;;;;;;;;5049017;28;20857;-70
2021/04/12 14:06:46;;;;;;;0.90;0.60;;;;;;;;;;5049938;28;20402;-68
2021/04/12 14:09:34;;;;;;;1.20;0.67;;;;;;;;;;5031667;28;20467;-68
2021/04/12 14:12:03;;;;;;;0.70;0.40;;;;;;;;;;5050815;28;20410;-68
2021/04/12 14:14:55;;;;;;;0.80;0.50;;;;;;;;;;5050376;28;20455;-69
2021/04/12 14:17:25;;;;;;;0.70;0.43;;;;;;;;;;5027263;28;20434;-67
2021/04/12 14:19:53;;;;;;;0.70;0.40;;;;;;;;;;5050185;28;20423;-68
2021/04/12 14:22:27;;;;;;;0.70;0.40;;;;;;;;;;5047980;28;20411;-68
2021/04/12 14:24:55;;;;;;;0.80;0.50;;;;;;;;;;5045283;28;20464;-68
2021/04/12 14:27:23;;;;;;;0.90;0.73;;;;;;;;;;5046440;28;20435;-68
2021/04/12 14:29:58;;;;;;;0.70;0.40;;;;;;;;;;5027601;28;20895;-68
2021/04/12 14:32:26;;;;;;;0.70;0.47;;;;;;;;;;5044720;28;20531;-68
2021/04/12 14:35:04;;;;;;;1.00;0.70;;;;;;;;;;5047938;28;20474;-68
2021/04/12 14:37:32;;;;;;;0.80;0.60;;;;;;;;;;5058347;28;20413;-69
2021/04/12 14:40:18;;;;;;;0.80;0.50;;;;;;;;;;5045338;28;20392;-68
2021/04/12 14:42:52;;;;;;;0.90;0.70;;;;;;;;;;5044664;28;20426;-69
2021/04/12 14:45:30;;;;;;;0.80;0.57;;;;;;;;;;5049014;28;20465;-68
2021/04/12 14:47:59;;;;;;;0.80;0.50;;;;;;;;;;5048693;28;20465;-73
2021/04/12 14:50:27;;;;;;;0.70;0.50;;;;;;;;;;5030627;28;20765;-67
2021/04/12 14:52:55;;;;;;;0.70;0.50;;;;;;;;;;5041863;28;20408;-65
2021/04/12 14:55:28;;;;;;;19.70;1.50;;;;;;;;;;5041786;28;20437;-69
2021/04/12 14:58:06;;;;;;;0.80;0.60;;;;;;;;;;5050223;28;20387;-68
2021/04/12 15:00:35;;;;;;;0.80;0.60;;;;;;;;;;5050350;28;20386;-68
2021/04/12 15:03:03;;;;;;;1.13;0.60;;;;;;;;;;5052845;28;20747;-68
2021/04/12 15:05:41;;;;;;;1.80;0.70;;;;;;;;;;5047709;28;20421;-63
2021/04/12 15:08:13;;;;;;;0.93;0.50;;;;;;;;;;5030097;28;20471;-68
2021/04/12 15:10:43;;;;;;;1.13;0.53;;;;;;;;;;5049211;28;20454;-68
2021/04/12 15:13:09;;;;;;;1.00;0.90;;;;;;;;;;5049136;28;20463;-68
2021/04/12 15:15:39;;;;;;;0.87;0.60;;;;;;;;;;5031061;28;20472;-68
2021/04/12 15:18:11;;;;;;;0.97;0.50;;;;;;;;;;5049840;28;20823;-68
2021/04/12 15:20:42;;;;;;;0.70;0.40;;;;;;;;;;5049821;28;20436;-68
2021/04/12 15:23:11;;;;;;;1.00;0.60;;;;;;;;;;5049828;28;20471;-66
2021/04/12 15:25:40;;;;;;;0.70;0.43;;;;;;;;;;5048630;28;20445;-70
2021/04/12 15:28:06;;;;;;;31.77;1.23;;;;;;;;;;5043578;28;20828;-71
2021/04/12 15:30:37;;;;;;;0.97;0.57;;;;;;;;;;5048713;28;20413;-69
2021/04/12 15:33:13;;;;;;;1.10;0.90;;;;;;;;;;5047319;28;20414;-66
2021/04/12 15:35:41;;;;;;;1.47;0.60;;;;;;;;;;5045590;28;20447;-67
2021/04/12 15:38:10;;;;;;;0.70;0.40;;;;;;;;;;5045985;28;20402;-67
2021/04/12 15:40:47;;;;;;;1.67;1.07;;;;;;;;;;5048814;28;20380;-66